Terminal Aerodrome Forecast
Issued by NWS

Home | Current Version | Previous Version | Text Only | Print | Product List | Glossary On
Versions: 1 2 3 4 5 6 7 8 9 10 11 12
000
FTUS42 TJSJ 300500 RRA
TAFIST
TAF
TIST 300542Z 3006/3106 06006KT P6SM VCSH FEW030
     FM301400 09008KT P6SM FEW040
     FM302200 06006KT P6SM SKC=

USA.gov is the U.S. government's official web portal to all federal, state and local government web resources and services.